sensor_id;sensor_type;location;lat;lon;timestamp;P1;durP1;ratioP1;P2;durP2;ratioP2
81170;SDS011;70644;44.818;20.478;2023-06-10T00:02:00;9.75;;;8.77;;
81170;SDS011;70644;44.818;20.478;2023-06-10T00:04:26;9.57;;;8.68;;
81170;SDS011;70644;44.818;20.478;2023-06-10T00:06:53;10.68;;;9.77;;
81170;SDS011;70644;44.818;20.478;2023-06-10T00:09:19;10.20;;;9.23;;
81170;SDS011;70644;44.818;20.478;2023-06-10T00:11:46;9.65;;;8.75;;
81170;SDS011;70644;44.818;20.478;2023-06-10T00:14:14;9.85;;;8.85;;
81170;SDS011;70644;44.818;20.478;2023-06-10T00:16:40;10.57;;;9.48;;
81170;SDS011;70644;44.818;20.478;2023-06-10T00:19:09;9.50;;;8.60;;
81170;SDS011;70644;44.818;20.478;2023-06-10T00:21:39;10.02;;;9.02;;
81170;SDS011;70644;44.818;20.478;2023-06-10T00:24:08;9.25;;;8.35;;
81170;SDS011;70644;44.818;20.478;2023-06-10T00:26:41;9.98;;;8.98;;
81170;SDS011;70644;44.818;20.478;2023-06-10T00:29:07;9.77;;;8.75;;
81170;SDS011;70644;44.818;20.478;2023-06-10T00:31:37;9.57;;;8.68;;
81170;SDS011;70644;44.818;20.478;2023-06-10T00:34:03;9.00;;;8.10;;
81170;SDS011;70644;44.818;20.478;2023-06-10T00:36:29;9.07;;;8.18;;
81170;SDS011;70644;44.818;20.478;2023-06-10T00:38:56;10.85;;;9.95;;
81170;SDS011;70644;44.818;20.478;2023-06-10T00:41:22;9.93;;;8.93;;
81170;SDS011;70644;44.818;20.478;2023-06-10T00:43:48;9.63;;;8.73;;
81170;SDS011;70644;44.818;20.478;2023-06-10T00:46:14;9.57;;;8.68;;
81170;SDS011;70644;44.818;20.478;2023-06-10T00:48:42;10.15;;;9.15;;
81170;SDS011;70644;44.818;20.478;2023-06-10T00:51:08;9.38;;;8.48;;
81170;SDS011;70644;44.818;20.478;2023-06-10T00:53:39;8.85;;;7.93;;
81170;SDS011;70644;44.818;20.478;2023-06-10T00:56:05;9.40;;;8.50;;
81170;SDS011;70644;44.818;20.478;2023-06-10T00:58:32;9.27;;;8.35;;
81170;SDS011;70644;44.818;20.478;2023-06-10T01:00:59;8.65;;;7.85;;
81170;SDS011;70644;44.818;20.478;2023-06-10T01:03:25;10.40;;;9.50;;
81170;SDS011;70644;44.818;20.478;2023-06-10T01:11:13;9.25;;;8.30;;
81170;SDS011;70644;44.818;20.478;2023-06-10T01:13:43;10.27;;;9.38;;
81170;SDS011;70644;44.818;20.478;2023-06-10T01:16:09;10.23;;;9.32;;
81170;SDS011;70644;44.818;20.478;2023-06-10T01:18:35;10.50;;;9.60;;
81170;SDS011;70644;44.818;20.478;2023-06-10T01:21:03;8.75;;;7.85;;
81170;SDS011;70644;44.818;20.478;2023-06-10T01:23:30;9.40;;;8.50;;
81170;SDS011;70644;44.818;20.478;2023-06-10T01:26:03;9.30;;;8.40;;
81170;SDS011;70644;44.818;20.478;2023-06-10T01:28:49;10.32;;;9.32;;
81170;SDS011;70644;44.818;20.478;2023-06-10T01:33:52;9.88;;;8.98;;
81170;SDS011;70644;44.818;20.478;2023-06-10T01:36:18;9.23;;;8.23;;
81170;SDS011;70644;44.818;20.478;2023-06-10T01:38:46;10.23;;;9.32;;
81170;SDS011;70644;44.818;20.478;2023-06-10T01:41:13;8.90;;;8.00;;
81170;SDS011;70644;44.818;20.478;2023-06-10T01:43:40;8.50;;;7.70;;
81170;SDS011;70644;44.818;20.478;2023-06-10T01:46:06;8.90;;;7.82;;
81170;SDS011;70644;44.818;20.478;2023-06-10T01:48:32;8.75;;;7.85;;
81170;SDS011;70644;44.818;20.478;2023-06-10T01:50:58;8.77;;;7.97;;
81170;SDS011;70644;44.818;20.478;2023-06-10T01:53:25;8.15;;;7.28;;
81170;SDS011;70644;44.818;20.478;2023-06-10T01:55:51;8.73;;;7.82;;
81170;SDS011;70644;44.818;20.478;2023-06-10T01:58:17;10.35;;;9.35;;
81170;SDS011;70644;44.818;20.478;2023-06-10T02:00:43;8.82;;;7.93;;
81170;SDS011;70644;44.818;20.478;2023-06-10T02:03:09;9.30;;;8.40;;
81170;SDS011;70644;44.818;20.478;2023-06-10T02:05:35;9.07;;;8.20;;
81170;SDS011;70644;44.818;20.478;2023-06-10T02:08:01;10.93;;;9.90;;
81170;SDS011;70644;44.818;20.478;2023-06-10T02:10:27;10.93;;;9.90;;
81170;SDS011;70644;44.818;20.478;2023-06-10T02:12:55;9.18;;;8.27;;
81170;SDS011;70644;44.818;20.478;2023-06-10T02:15:21;10.85;;;9.75;;
81170;SDS011;70644;44.818;20.478;2023-06-10T02:17:47;9.32;;;8.43;;
81170;SDS011;70644;44.818;20.478;2023-06-10T02:20:17;8.50;;;7.70;;
81170;SDS011;70644;44.818;20.478;2023-06-10T02:22:44;9.48;;;8.57;;
81170;SDS011;70644;44.818;20.478;2023-06-10T02:25:10;9.10;;;8.20;;
81170;SDS011;70644;44.818;20.478;2023-06-10T02:27:36;8.65;;;7.75;;
81170;SDS011;70644;44.818;20.478;2023-06-10T02:30:02;8.98;;;8.05;;
81170;SDS011;70644;44.818;20.478;2023-06-10T02:32:28;8.40;;;7.60;;
81170;SDS011;70644;44.818;20.478;2023-06-10T02:34:54;9.00;;;8.02;;
81170;SDS011;70644;44.818;20.478;2023-06-10T02:37:20;10.35;;;9.40;;
81170;SDS011;70644;44.818;20.478;2023-06-10T02:39:47;10.40;;;9.40;;
81170;SDS011;70644;44.818;20.478;2023-06-10T02:42:13;8.98;;;8.10;;
81170;SDS011;70644;44.818;20.478;2023-06-10T02:44:39;9.32;;;8.43;;
81170;SDS011;70644;44.818;20.478;2023-06-10T02:47:05;10.07;;;9.18;;
81170;SDS011;70644;44.818;20.478;2023-06-10T02:49:31;9.98;;;8.98;;
81170;SDS011;70644;44.818;20.478;2023-06-10T02:51:57;9.98;;;9.07;;
81170;SDS011;70644;44.818;20.478;2023-06-10T02:54:24;10.25;;;9.30;;
81170;SDS011;70644;44.818;20.478;2023-06-10T02:56:51;9.65;;;8.65;;
81170;SDS011;70644;44.818;20.478;2023-06-10T02:59:17;9.48;;;8.50;;
81170;SDS011;70644;44.818;20.478;2023-06-10T03:01:43;10.52;;;9.52;;
81170;SDS011;70644;44.818;20.478;2023-06-10T03:04:09;8.32;;;7.53;;
81170;SDS011;70644;44.818;20.478;2023-06-10T03:06:38;10.48;;;9.57;;
81170;SDS011;70644;44.818;20.478;2023-06-10T03:09:06;8.98;;;8.07;;
81170;SDS011;70644;44.818;20.478;2023-06-10T03:11:35;9.07;;;8.27;;
81170;SDS011;70644;44.818;20.478;2023-06-10T03:14:01;8.80;;;7.97;;
81170;SDS011;70644;44.818;20.478;2023-06-10T03:16:27;9.00;;;8.10;;
81170;SDS011;70644;44.818;20.478;2023-06-10T03:18:58;8.45;;;7.68;;
81170;SDS011;70644;44.818;20.478;2023-06-10T03:21:24;9.05;;;8.15;;
81170;SDS011;70644;44.818;20.478;2023-06-10T03:23:52;10.27;;;9.27;;
81170;SDS011;70644;44.818;20.478;2023-06-10T03:26:18;9.02;;;8.13;;
81170;SDS011;70644;44.818;20.478;2023-06-10T03:28:48;9.95;;;9.05;;
81170;SDS011;70644;44.818;20.478;2023-06-10T03:31:14;8.70;;;7.80;;
81170;SDS011;70644;44.818;20.478;2023-06-10T03:33:42;8.80;;;7.78;;
81170;SDS011;70644;44.818;20.478;2023-06-10T03:36:08;8.60;;;7.80;;
81170;SDS011;70644;44.818;20.478;2023-06-10T03:38:34;9.85;;;8.95;;
81170;SDS011;70644;44.818;20.478;2023-06-10T03:41:02;9.10;;;8.20;;
81170;SDS011;70644;44.818;20.478;2023-06-10T03:43:29;9.27;;;8.32;;
81170;SDS011;70644;44.818;20.478;2023-06-10T03:45:56;8.90;;;8.02;;
81170;SDS011;70644;44.818;20.478;2023-06-10T03:48:22;8.73;;;7.90;;
81170;SDS011;70644;44.818;20.478;2023-06-10T03:50:48;8.65;;;7.85;;
81170;SDS011;70644;44.818;20.478;2023-06-10T03:53:16;10.30;;;9.30;;
81170;SDS011;70644;44.818;20.478;2023-06-10T03:55:43;9.32;;;8.43;;
81170;SDS011;70644;44.818;20.478;2023-06-10T03:58:10;10.18;;;9.25;;
81170;SDS011;70644;44.818;20.478;2023-06-10T04:00:38;9.23;;;8.32;;
81170;SDS011;70644;44.818;20.478;2023-06-10T04:03:09;10.40;;;9.50;;
81170;SDS011;70644;44.818;20.478;2023-06-10T04:05:40;9.00;;;8.20;;
81170;SDS011;70644;44.818;20.478;2023-06-10T04:08:07;10.80;;;9.80;;
81170;SDS011;70644;44.818;20.478;2023-06-10T04:10:34;10.20;;;9.30;;
81170;SDS011;70644;44.818;20.478;2023-06-10T04:13:00;9.20;;;8.30;;
81170;SDS011;70644;44.818;20.478;2023-06-10T04:15:27;11.20;;;10.20;;
81170;SDS011;70644;44.818;20.478;2023-06-10T04:17:53;8.52;;;7.72;;
81170;SDS011;70644;44.818;20.478;2023-06-10T04:20:19;10.60;;;9.50;;
81170;SDS011;70644;44.818;20.478;2023-06-10T04:22:45;8.93;;;7.78;;
81170;SDS011;70644;44.818;20.478;2023-06-10T04:25:12;8.52;;;7.50;;
81170;SDS011;70644;44.818;20.478;2023-06-10T04:27:38;10.18;;;9.18;;
81170;SDS011;70644;44.818;20.478;2023-06-10T04:30:04;8.77;;;7.97;;
81170;SDS011;70644;44.818;20.478;2023-06-10T04:32:32;8.77;;;7.88;;
81170;SDS011;70644;44.818;20.478;2023-06-10T04:34:59;9.15;;;8.25;;
81170;SDS011;70644;44.818;20.478;2023-06-10T04:37:25;8.45;;;7.65;;
81170;SDS011;70644;44.818;20.478;2023-06-10T04:39:54;8.38;;;7.53;;
81170;SDS011;70644;44.818;20.478;2023-06-10T04:42:20;8.80;;;7.90;;
81170;SDS011;70644;44.818;20.478;2023-06-10T04:44:46;10.23;;;9.35;;
81170;SDS011;70644;44.818;20.478;2023-06-10T04:47:12;8.40;;;7.57;;
81170;SDS011;70644;44.818;20.478;2023-06-10T04:49:38;10.43;;;9.52;;
81170;SDS011;70644;44.818;20.478;2023-06-10T04:52:05;9.52;;;8.73;;
81170;SDS011;70644;44.818;20.478;2023-06-10T04:54:31;9.43;;;8.32;;
81170;SDS011;70644;44.818;20.478;2023-06-10T04:56:57;8.40;;;7.60;;
81170;SDS011;70644;44.818;20.478;2023-06-10T04:59:25;9.13;;;8.23;;
81170;SDS011;70644;44.818;20.478;2023-06-10T05:01:52;9.40;;;8.60;;
81170;SDS011;70644;44.818;20.478;2023-06-10T05:04:20;8.48;;;7.57;;
81170;SDS011;70644;44.818;20.478;2023-06-10T05:06:46;9.35;;;8.45;;
81170;SDS011;70644;44.818;20.478;2023-06-10T05:09:13;9.43;;;8.52;;
81170;SDS011;70644;44.818;20.478;2023-06-10T05:11:39;8.20;;;7.32;;
81170;SDS011;70644;44.818;20.478;2023-06-10T05:14:05;8.45;;;7.40;;
81170;SDS011;70644;44.818;20.478;2023-06-10T05:16:31;8.18;;;7.38;;
81170;SDS011;70644;44.818;20.478;2023-06-10T05:18:57;9.18;;;8.38;;
81170;SDS011;70644;44.818;20.478;2023-06-10T05:21:23;8.27;;;7.47;;
81170;SDS011;70644;44.818;20.478;2023-06-10T05:23:49;8.07;;;7.32;;
81170;SDS011;70644;44.818;20.478;2023-06-10T05:26:15;7.85;;;7.03;;
81170;SDS011;70644;44.818;20.478;2023-06-10T05:28:43;8.77;;;7.90;;
81170;SDS011;70644;44.818;20.478;2023-06-10T05:31:09;8.13;;;7.28;;
81170;SDS011;70644;44.818;20.478;2023-06-10T05:33:35;8.95;;;8.15;;
81170;SDS011;70644;44.818;20.478;2023-06-10T05:36:01;7.95;;;7.25;;
81170;SDS011;70644;44.818;20.478;2023-06-10T05:38:27;8.55;;;7.68;;
81170;SDS011;70644;44.818;20.478;2023-06-10T05:40:54;8.05;;;7.20;;
81170;SDS011;70644;44.818;20.478;2023-06-10T05:43:21;9.20;;;7.95;;
81170;SDS011;70644;44.818;20.478;2023-06-10T05:45:47;7.47;;;6.78;;
81170;SDS011;70644;44.818;20.478;2023-06-10T05:48:14;7.32;;;6.63;;
81170;SDS011;70644;44.818;20.478;2023-06-10T05:50:40;9.40;;;8.60;;
81170;SDS011;70644;44.818;20.478;2023-06-10T05:53:07;8.52;;;7.72;;
81170;SDS011;70644;44.818;20.478;2023-06-10T05:55:40;8.23;;;7.50;;
81170;SDS011;70644;44.818;20.478;2023-06-10T05:58:06;7.53;;;6.68;;
81170;SDS011;70644;44.818;20.478;2023-06-10T06:00:32;7.15;;;6.45;;
81170;SDS011;70644;44.818;20.478;2023-06-10T06:02:58;7.30;;;6.60;;
81170;SDS011;70644;44.818;20.478;2023-06-10T06:05:24;7.55;;;6.85;;
81170;SDS011;70644;44.818;20.478;2023-06-10T06:07:51;8.25;;;7.45;;
81170;SDS011;70644;44.818;20.478;2023-06-10T06:10:17;7.40;;;6.55;;
81170;SDS011;70644;44.818;20.478;2023-06-10T06:12:43;7.57;;;6.38;;
81170;SDS011;70644;44.818;20.478;2023-06-10T06:15:10;7.30;;;6.60;;
81170;SDS011;70644;44.818;20.478;2023-06-10T06:17:36;6.43;;;5.82;;
81170;SDS011;70644;44.818;20.478;2023-06-10T06:20:03;7.28;;;6.57;;
81170;SDS011;70644;44.818;20.478;2023-06-10T06:22:31;6.80;;;6.03;;
81170;SDS011;70644;44.818;20.478;2023-06-10T06:24:57;7.70;;;6.63;;
81170;SDS011;70644;44.818;20.478;2023-06-10T06:27:23;7.45;;;6.65;;
81170;SDS011;70644;44.818;20.478;2023-06-10T06:29:49;8.00;;;7.05;;
81170;SDS011;70644;44.818;20.478;2023-06-10T06:32:18;7.30;;;6.55;;
81170;SDS011;70644;44.818;20.478;2023-06-10T06:34:44;6.63;;;6.03;;
81170;SDS011;70644;44.818;20.478;2023-06-10T06:37:10;7.80;;;7.10;;
81170;SDS011;70644;44.818;20.478;2023-06-10T06:39:36;7.93;;;7.22;;
81170;SDS011;70644;44.818;20.478;2023-06-10T06:42:02;7.68;;;6.80;;
81170;SDS011;70644;44.818;20.478;2023-06-10T06:44:28;6.88;;;6.18;;
81170;SDS011;70644;44.818;20.478;2023-06-10T06:46:54;7.45;;;5.90;;
81170;SDS011;70644;44.818;20.478;2023-06-10T06:49:20;7.45;;;6.75;;
81170;SDS011;70644;44.818;20.478;2023-06-10T06:51:46;6.47;;;5.82;;
81170;SDS011;70644;44.818;20.478;2023-06-10T06:54:13;7.53;;;6.82;;
81170;SDS011;70644;44.818;20.478;2023-06-10T06:56:39;7.68;;;6.97;;
81170;SDS011;70644;44.818;20.478;2023-06-10T06:59:05;7.57;;;6.65;;
81170;SDS011;70644;44.818;20.478;2023-06-10T07:01:32;7.30;;;6.60;;
81170;SDS011;70644;44.818;20.478;2023-06-10T07:04:00;7.28;;;6.57;;
81170;SDS011;70644;44.818;20.478;2023-06-10T07:06:26;7.18;;;6.47;;
81170;SDS011;70644;44.818;20.478;2023-06-10T07:08:52;7.18;;;6.57;;
81170;SDS011;70644;44.818;20.478;2023-06-10T07:11:18;6.57;;;5.95;;
81170;SDS011;70644;44.818;20.478;2023-06-10T07:13:44;7.65;;;6.95;;
81170;SDS011;70644;44.818;20.478;2023-06-10T07:16:10;6.30;;;5.57;;
81170;SDS011;70644;44.818;20.478;2023-06-10T07:18:36;6.57;;;5.93;;
81170;SDS011;70644;44.818;20.478;2023-06-10T07:21:02;6.18;;;5.57;;
81170;SDS011;70644;44.818;20.478;2023-06-10T07:23:28;6.47;;;5.88;;
81170;SDS011;70644;44.818;20.478;2023-06-10T07:25:56;7.45;;;6.57;;
81170;SDS011;70644;44.818;20.478;2023-06-10T07:28:23;6.95;;;6.30;;
81170;SDS011;70644;44.818;20.478;2023-06-10T07:30:49;6.80;;;6.20;;
81170;SDS011;70644;44.818;20.478;2023-06-10T07:33:15;6.88;;;6.28;;
81170;SDS011;70644;44.818;20.478;2023-06-10T07:35:41;6.13;;;5.32;;
81170;SDS011;70644;44.818;20.478;2023-06-10T07:38:08;5.95;;;5.10;;
81170;SDS011;70644;44.818;20.478;2023-06-10T07:40:34;7.10;;;6.50;;
81170;SDS011;70644;44.818;20.478;2023-06-10T07:43:03;6.82;;;6.20;;
81170;SDS011;70644;44.818;20.478;2023-06-10T07:45:29;6.38;;;5.78;;
81170;SDS011;70644;44.818;20.478;2023-06-10T07:47:56;7.05;;;6.38;;
81170;SDS011;70644;44.818;20.478;2023-06-10T07:50:22;6.60;;;6.00;;
81170;SDS011;70644;44.818;20.478;2023-06-10T07:52:48;5.65;;;4.97;;
81170;SDS011;70644;44.818;20.478;2023-06-10T07:55:14;6.60;;;6.00;;
81170;SDS011;70644;44.818;20.478;2023-06-10T07:57:40;5.78;;;5.25;;
81170;SDS011;70644;44.818;20.478;2023-06-10T08:00:06;5.80;;;5.30;;
81170;SDS011;70644;44.818;20.478;2023-06-10T08:02:33;6.68;;;5.93;;
81170;SDS011;70644;44.818;20.478;2023-06-10T08:04:59;5.65;;;4.82;;
81170;SDS011;70644;44.818;20.478;2023-06-10T08:07:25;5.75;;;5.18;;
81170;SDS011;70644;44.818;20.478;2023-06-10T08:09:52;6.50;;;5.90;;
81170;SDS011;70644;44.818;20.478;2023-06-10T08:12:18;6.15;;;5.55;;
81170;SDS011;70644;44.818;20.478;2023-06-10T08:14:45;6.35;;;5.70;;
81170;SDS011;70644;44.818;20.478;2023-06-10T08:17:11;6.40;;;5.80;;
81170;SDS011;70644;44.818;20.478;2023-06-10T08:19:38;5.47;;;4.97;;
81170;SDS011;70644;44.818;20.478;2023-06-10T08:22:06;5.68;;;4.78;;
81170;SDS011;70644;44.818;20.478;2023-06-10T08:24:33;5.80;;;5.18;;
81170;SDS011;70644;44.818;20.478;2023-06-10T08:27:00;5.82;;;4.50;;
81170;SDS011;70644;44.818;20.478;2023-06-10T08:29:28;6.07;;;5.00;;
81170;SDS011;70644;44.818;20.478;2023-06-10T08:31:56;5.95;;;5.35;;
81170;SDS011;70644;44.818;20.478;2023-06-10T08:34:23;5.65;;;5.15;;
81170;SDS011;70644;44.818;20.478;2023-06-10T08:36:49;4.88;;;4.38;;
81170;SDS011;70644;44.818;20.478;2023-06-10T08:39:18;5.90;;;5.30;;
81170;SDS011;70644;44.818;20.478;2023-06-10T08:41:46;6.10;;;5.57;;
81170;SDS011;70644;44.818;20.478;2023-06-10T08:44:17;5.65;;;5.05;;
81170;SDS011;70644;44.818;20.478;2023-06-10T08:46:44;6.10;;;5.60;;
81170;SDS011;70644;44.818;20.478;2023-06-10T08:49:11;6.03;;;5.43;;
81170;SDS011;70644;44.818;20.478;2023-06-10T08:51:41;6.07;;;5.50;;
81170;SDS011;70644;44.818;20.478;2023-06-10T08:54:11;5.82;;;5.30;;
81170;SDS011;70644;44.818;20.478;2023-06-10T08:56:40;5.55;;;5.05;;
81170;SDS011;70644;44.818;20.478;2023-06-10T08:59:06;5.32;;;4.82;;
81170;SDS011;70644;44.818;20.478;2023-06-10T09:01:33;4.88;;;4.35;;
81170;SDS011;70644;44.818;20.478;2023-06-10T09:04:00;4.78;;;4.38;;
81170;SDS011;70644;44.818;20.478;2023-06-10T09:06:27;5.57;;;5.07;;
81170;SDS011;70644;44.818;20.478;2023-06-10T09:08:54;6.00;;;4.35;;
81170;SDS011;70644;44.818;20.478;2023-06-10T09:11:22;5.50;;;4.65;;
81170;SDS011;70644;44.818;20.478;2023-06-10T09:13:48;6.03;;;5.43;;
81170;SDS011;70644;44.818;20.478;2023-06-10T09:16:15;4.90;;;4.40;;
81170;SDS011;70644;44.818;20.478;2023-06-10T09:18:41;5.82;;;5.32;;
81170;SDS011;70644;44.818;20.478;2023-06-10T09:21:07;5.40;;;4.90;;
81170;SDS011;70644;44.818;20.478;2023-06-10T09:23:34;4.57;;;4.00;;
81170;SDS011;70644;44.818;20.478;2023-06-10T09:26:00;5.40;;;4.90;;
81170;SDS011;70644;44.818;20.478;2023-06-10T09:28:26;4.38;;;3.97;;
81170;SDS011;70644;44.818;20.478;2023-06-10T09:31:05;4.95;;;4.45;;
81170;SDS011;70644;44.818;20.478;2023-06-10T09:33:32;4.93;;;4.30;;
81170;SDS011;70644;44.818;20.478;2023-06-10T09:35:59;5.03;;;4.30;;
81170;SDS011;70644;44.818;20.478;2023-06-10T09:38:29;5.07;;;4.05;;
81170;SDS011;70644;44.818;20.478;2023-06-10T09:40:57;5.05;;;4.60;;
81170;SDS011;70644;44.818;20.478;2023-06-10T09:43:23;5.20;;;4.80;;
81170;SDS011;70644;44.818;20.478;2023-06-10T09:46:03;4.93;;;3.97;;
81170;SDS011;70644;44.818;20.478;2023-06-10T09:48:29;5.60;;;5.10;;
81170;SDS011;70644;44.818;20.478;2023-06-10T09:50:55;5.25;;;4.70;;
81170;SDS011;70644;44.818;20.478;2023-06-10T09:53:21;4.13;;;3.70;;
81170;SDS011;70644;44.818;20.478;2023-06-10T09:55:47;5.07;;;4.57;;
81170;SDS011;70644;44.818;20.478;2023-06-10T09:58:14;4.63;;;4.10;;
81170;SDS011;70644;44.818;20.478;2023-06-10T10:00:40;4.18;;;3.70;;
81170;SDS011;70644;44.818;20.478;2023-06-10T10:03:06;5.18;;;3.88;;
81170;SDS011;70644;44.818;20.478;2023-06-10T10:05:32;5.53;;;3.97;;
81170;SDS011;70644;44.818;20.478;2023-06-10T10:07:58;4.95;;;4.45;;
81170;SDS011;70644;44.818;20.478;2023-06-10T10:10:25;4.88;;;4.00;;
81170;SDS011;70644;44.818;20.478;2023-06-10T10:12:53;5.30;;;3.90;;
81170;SDS011;70644;44.818;20.478;2023-06-10T10:15:21;5.25;;;3.78;;
81170;SDS011;70644;44.818;20.478;2023-06-10T10:18:06;4.30;;;3.90;;
81170;SDS011;70644;44.818;20.478;2023-06-10T10:20:33;4.00;;;3.60;;
81170;SDS011;70644;44.818;20.478;2023-06-10T10:23:02;4.32;;;3.92;;
81170;SDS011;70644;44.818;20.478;2023-06-10T10:25:32;5.05;;;4.00;;
81170;SDS011;70644;44.818;20.478;2023-06-10T10:28:12;4.85;;;4.45;;
81170;SDS011;70644;44.818;20.478;2023-06-10T10:30:42;4.82;;;4.43;;
81170;SDS011;70644;44.818;20.478;2023-06-10T10:33:16;4.72;;;4.32;;
81170;SDS011;70644;44.818;20.478;2023-06-10T10:35:44;4.20;;;3.50;;
81170;SDS011;70644;44.818;20.478;2023-06-10T10:38:11;3.92;;;3.53;;
81170;SDS011;70644;44.818;20.478;2023-06-10T10:40:37;4.20;;;3.80;;
81170;SDS011;70644;44.818;20.478;2023-06-10T10:43:04;4.53;;;3.53;;
81170;SDS011;70644;44.818;20.478;2023-06-10T10:45:30;4.90;;;4.18;;
81170;SDS011;70644;44.818;20.478;2023-06-10T10:47:58;4.72;;;4.22;;
81170;SDS011;70644;44.818;20.478;2023-06-10T10:50:30;4.63;;;4.22;;
81170;SDS011;70644;44.818;20.478;2023-06-10T10:53:03;4.53;;;4.13;;
81170;SDS011;70644;44.818;20.478;2023-06-10T10:55:29;4.85;;;4.35;;
81170;SDS011;70644;44.818;20.478;2023-06-10T10:57:59;4.78;;;4.30;;
81170;SDS011;70644;44.818;20.478;2023-06-10T11:00:30;4.60;;;4.20;;
81170;SDS011;70644;44.818;20.478;2023-06-10T11:03:04;4.07;;;3.67;;
81170;SDS011;70644;44.818;20.478;2023-06-10T11:05:39;4.70;;;4.22;;
81170;SDS011;70644;44.818;20.478;2023-06-10T11:08:07;5.10;;;4.50;;
81170;SDS011;70644;44.818;20.478;2023-06-10T11:10:34;4.70;;;4.30;;
81170;SDS011;70644;44.818;20.478;2023-06-10T11:13:09;3.90;;;3.50;;
81170;SDS011;70644;44.818;20.478;2023-06-10T11:15:39;4.95;;;4.45;;
81170;SDS011;70644;44.818;20.478;2023-06-10T11:18:12;4.70;;;4.15;;
81170;SDS011;70644;44.818;20.478;2023-06-10T11:20:45;4.05;;;3.55;;
81170;SDS011;70644;44.818;20.478;2023-06-10T11:31:25;4.55;;;4.15;;
81170;SDS011;70644;44.818;20.478;2023-06-10T11:33:52;4.05;;;3.33;;
81170;SDS011;70644;44.818;20.478;2023-06-10T11:36:18;4.00;;;3.40;;
81170;SDS011;70644;44.818;20.478;2023-06-10T11:38:45;4.60;;;4.05;;
81170;SDS011;70644;44.818;20.478;2023-06-10T11:41:12;4.28;;;3.88;;
81170;SDS011;70644;44.818;20.478;2023-06-10T11:43:45;4.40;;;4.00;;
81170;SDS011;70644;44.818;20.478;2023-06-10T11:46:12;4.13;;;3.17;;
81170;SDS011;70644;44.818;20.478;2023-06-10T11:48:38;4.68;;;4.00;;
81170;SDS011;70644;44.818;20.478;2023-06-10T11:51:07;4.53;;;3.65;;
81170;SDS011;70644;44.818;20.478;2023-06-10T11:53:34;3.28;;;2.97;;
81170;SDS011;70644;44.818;20.478;2023-06-10T11:56:00;5.10;;;3.17;;
81170;SDS011;70644;44.818;20.478;2023-06-10T11:58:26;4.07;;;3.50;;
81170;SDS011;70644;44.818;20.478;2023-06-10T12:00:53;4.53;;;4.13;;
81170;SDS011;70644;44.818;20.478;2023-06-10T12:03:21;3.75;;;3.28;;
81170;SDS011;70644;44.818;20.478;2023-06-10T12:06:01;4.25;;;3.65;;
81170;SDS011;70644;44.818;20.478;2023-06-10T12:08:27;4.43;;;3.92;;
81170;SDS011;70644;44.818;20.478;2023-06-10T12:10:54;3.63;;;3.17;;
81170;SDS011;70644;44.818;20.478;2023-06-10T12:13:21;4.07;;;3.75;;
81170;SDS011;70644;44.818;20.478;2023-06-10T12:15:48;4.50;;;4.10;;
81170;SDS011;70644;44.818;20.478;2023-06-10T12:18:21;3.40;;;3.10;;
81170;SDS011;70644;44.818;20.478;2023-06-10T12:20:47;4.47;;;4.03;;
81170;SDS011;70644;44.818;20.478;2023-06-10T12:23:14;3.90;;;3.50;;
81170;SDS011;70644;44.818;20.478;2023-06-10T12:25:51;4.35;;;3.95;;
81170;SDS011;70644;44.818;20.478;2023-06-10T12:28:20;4.05;;;3.15;;
81170;SDS011;70644;44.818;20.478;2023-06-10T12:33:17;4.65;;;4.25;;
81170;SDS011;70644;44.818;20.478;2023-06-10T12:35:49;4.10;;;3.70;;
81170;SDS011;70644;44.818;20.478;2023-06-10T12:38:22;3.63;;;2.80;;
81170;SDS011;70644;44.818;20.478;2023-06-10T12:40:52;4.10;;;3.70;;
81170;SDS011;70644;44.818;20.478;2023-06-10T12:43:24;3.80;;;3.20;;
81170;SDS011;70644;44.818;20.478;2023-06-10T12:45:51;4.25;;;3.85;;
81170;SDS011;70644;44.818;20.478;2023-06-10T12:48:23;3.83;;;3.25;;
81170;SDS011;70644;44.818;20.478;2023-06-10T12:53:19;3.97;;;3.38;;
81170;SDS011;70644;44.818;20.478;2023-06-10T12:55:46;4.57;;;3.20;;
81170;SDS011;70644;44.818;20.478;2023-06-10T12:58:12;3.67;;;3.05;;
81170;SDS011;70644;44.818;20.478;2023-06-10T13:00:39;3.22;;;2.80;;
81170;SDS011;70644;44.818;20.478;2023-06-10T13:03:07;4.20;;;3.53;;
81170;SDS011;70644;44.818;20.478;2023-06-10T13:05:34;3.95;;;3.55;;
81170;SDS011;70644;44.818;20.478;2023-06-10T13:10:28;4.25;;;3.85;;
81170;SDS011;70644;44.818;20.478;2023-06-10T13:12:54;3.35;;;2.88;;
81170;SDS011;70644;44.818;20.478;2023-06-10T13:15:21;4.32;;;3.92;;
81170;SDS011;70644;44.818;20.478;2023-06-10T13:17:47;4.22;;;3.83;;
81170;SDS011;70644;44.818;20.478;2023-06-10T13:20:15;4.40;;;4.00;;
81170;SDS011;70644;44.818;20.478;2023-06-10T13:22:42;3.75;;;3.25;;
81170;SDS011;70644;44.818;20.478;2023-06-10T13:25:08;4.47;;;4.07;;
81170;SDS011;70644;44.818;20.478;2023-06-10T13:27:36;5.85;;;4.22;;
81170;SDS011;70644;44.818;20.478;2023-06-10T13:30:07;3.60;;;3.30;;
81170;SDS011;70644;44.818;20.478;2023-06-10T13:32:33;4.47;;;4.00;;
81170;SDS011;70644;44.818;20.478;2023-06-10T13:34:59;4.80;;;3.97;;
81170;SDS011;70644;44.818;20.478;2023-06-10T13:37:26;4.47;;;3.80;;
81170;SDS011;70644;44.818;20.478;2023-06-10T13:39:52;5.10;;;4.22;;
81170;SDS011;70644;44.818;20.478;2023-06-10T13:42:19;4.32;;;3.92;;
81170;SDS011;70644;44.818;20.478;2023-06-10T13:44:47;4.78;;;4.28;;
81170;SDS011;70644;44.818;20.478;2023-06-10T13:47:14;3.63;;;3.13;;
81170;SDS011;70644;44.818;20.478;2023-06-10T13:49:40;5.40;;;4.32;;
81170;SDS011;70644;44.818;20.478;2023-06-10T13:52:06;4.25;;;3.83;;
81170;SDS011;70644;44.818;20.478;2023-06-10T13:54:32;5.53;;;4.45;;
81170;SDS011;70644;44.818;20.478;2023-06-10T13:57:00;4.63;;;3.35;;
81170;SDS011;70644;44.818;20.478;2023-06-10T13:59:27;5.15;;;4.13;;
81170;SDS011;70644;44.818;20.478;2023-06-10T14:01:53;4.05;;;3.28;;
81170;SDS011;70644;44.818;20.478;2023-06-10T14:04:19;4.60;;;4.20;;
81170;SDS011;70644;44.818;20.478;2023-06-10T14:06:45;3.80;;;3.20;;
81170;SDS011;70644;44.818;20.478;2023-06-10T14:09:12;3.88;;;3.30;;
81170;SDS011;70644;44.818;20.478;2023-06-10T14:11:39;5.63;;;4.47;;
81170;SDS011;70644;44.818;20.478;2023-06-10T14:14:05;3.97;;;3.30;;
81170;SDS011;70644;44.818;20.478;2023-06-10T14:16:31;4.82;;;3.78;;
81170;SDS011;70644;44.818;20.478;2023-06-10T14:18:57;5.38;;;4.60;;
81170;SDS011;70644;44.818;20.478;2023-06-10T14:21:23;4.53;;;4.13;;
81170;SDS011;70644;44.818;20.478;2023-06-10T14:23:50;4.00;;;3.60;;
81170;SDS011;70644;44.818;20.478;2023-06-10T14:26:18;3.92;;;3.38;;
81170;SDS011;70644;44.818;20.478;2023-06-10T14:28:46;4.50;;;4.10;;
81170;SDS011;70644;44.818;20.478;2023-06-10T14:31:12;4.50;;;4.10;;
81170;SDS011;70644;44.818;20.478;2023-06-10T14:33:38;4.82;;;4.10;;
81170;SDS011;70644;44.818;20.478;2023-06-10T14:36:07;4.45;;;4.03;;
81170;SDS011;70644;44.818;20.478;2023-06-10T14:38:33;4.35;;;3.67;;
81170;SDS011;70644;44.818;20.478;2023-06-10T14:40:59;4.55;;;3.55;;
81170;SDS011;70644;44.818;20.478;2023-06-10T14:43:25;3.75;;;3.35;;
81170;SDS011;70644;44.818;20.478;2023-06-10T14:45:51;4.13;;;3.70;;
81170;SDS011;70644;44.818;20.478;2023-06-10T14:48:17;4.47;;;4.07;;
81170;SDS011;70644;44.818;20.478;2023-06-10T14:50:43;4.57;;;4.07;;
81170;SDS011;70644;44.818;20.478;2023-06-10T14:53:13;4.20;;;3.50;;
81170;SDS011;70644;44.818;20.478;2023-06-10T14:55:40;3.95;;;3.55;;
81170;SDS011;70644;44.818;20.478;2023-06-10T14:58:07;4.22;;;3.70;;